Time;durP1;ratioP1;P1;durP2;ratioP2;P2;SDS_P1;SDS_P2;PMS_P1;PMS_P2;Temp;Humidity;BMP_temperature;BMP_pressure;BME280_temperature;BME280_humidity;BME280_pressure;Samples;Min_cycle;Max_cycle;Signal;HPM_P1;HPM_P2
2023/10/23 00:00:37;;;;;;;10.00;4.18;;;;;;;11.21;100.00;100387.72;5587853;31;34276;-71
2023/10/23 00:03:41;;;;;;;6.60;4.07;;;;;;;11.18;100.00;100385.41;5588640;31;34673;-71
2023/10/23 00:06:44;;;;;;;8.65;4.53;;;;;;;11.11;100.00;100379.94;5588195;31;35010;-71
2023/10/23 00:09:47;;;;;;;11.45;4.18;;;;;;;11.09;100.00;100383.75;5587600;31;34726;-71
2023/10/23 00:12:50;;;;;;;7.10;4.05;;;;;;;11.14;100.00;100400.00;5588156;31;34064;-71
2023/10/23 00:15:53;;;;;;;7.85;4.20;;;;;;;11.16;100.00;100404.16;5588444;31;33987;-71
2023/10/23 00:18:55;;;;;;;9.02;4.68;;;;;;;11.19;100.00;100395.00;5588348;31;34798;-71
2023/10/23 00:21:59;;;;;;;6.60;4.03;;;;;;;11.14;100.00;100394.69;5588292;31;33977;-71
2023/10/23 00:25:02;;;;;;;5.68;4.50;;;;;;;11.08;100.00;100385.63;5588205;31;34158;-71
2023/10/23 00:28:05;;;;;;;8.23;3.95;;;;;;;11.02;100.00;100390.75;5588139;31;33968;-71
2023/10/23 00:31:07;;;;;;;6.28;4.10;;;;;;;11.04;100.00;100384.28;5587331;31;34236;-71
2023/10/23 00:34:11;;;;;;;8.48;4.25;;;;;;;11.04;100.00;100381.62;5588156;31;34637;-71
2023/10/23 00:37:14;;;;;;;10.68;4.60;;;;;;;11.05;100.00;100383.28;5588002;31;34703;-71
2023/10/23 00:40:17;;;;;;;7.50;3.83;;;;;;;11.06;100.00;100378.81;5588040;31;33972;-71
2023/10/23 00:43:22;;;;;;;7.10;3.72;;;;;;;11.07;100.00;100377.81;5587875;31;35182;-71
2023/10/23 00:46:30;;;;;;;5.75;3.72;;;;;;;11.11;100.00;100387.91;5587759;31;33979;-71
2023/10/23 00:49:32;;;;;;;5.22;3.53;;;;;;;11.12;100.00;100386.91;5587921;31;33945;-71
2023/10/23 00:52:36;;;;;;;7.70;4.32;;;;;;;11.15;100.00;100389.22;5587704;31;34769;-71
2023/10/23 00:55:40;;;;;;;8.68;4.10;;;;;;;11.07;100.00;100393.75;5587953;31;34015;-70
2023/10/23 00:58:43;;;;;;;6.93;4.07;;;;;;;10.99;100.00;100391.91;5587671;31;34994;-70
2023/10/23 01:01:46;;;;;;;8.85;3.90;;;;;;;11.03;100.00;100393.25;5587478;31;34217;-71
2023/10/23 01:04:50;;;;;;;6.75;3.58;;;;;;;11.10;100.00;100385.41;5587475;31;34137;-71
2023/10/23 01:07:55;;;;;;;6.00;3.65;;;;;;;11.14;100.00;100392.87;5587859;31;34124;-71
2023/10/23 01:10:59;;;;;;;8.02;3.87;;;;;;;11.02;100.00;100393.41;5587446;31;34190;-71
2023/10/23 01:14:02;;;;;;;8.95;4.22;;;;;;;10.93;100.00;100397.09;5587738;31;34110;-70
2023/10/23 01:17:05;;;;;;;6.30;3.95;;;;;;;10.78;100.00;100397.78;5587311;31;34819;-71
2023/10/23 01:20:09;;;;;;;8.20;4.15;;;;;;;10.73;100.00;100386.84;5587249;31;33995;-71
2023/10/23 01:23:12;;;;;;;11.65;4.10;;;;;;;10.61;100.00;100379.37;5588343;31;34735;-71
2023/10/23 01:26:15;;;;;;;7.15;4.68;;;;;;;10.64;100.00;100382.56;5590103;31;34148;-71
2023/10/23 01:29:18;;;;;;;9.48;4.37;;;;;;;10.69;100.00;100390.00;5589380;31;34090;-70
2023/10/23 01:32:21;;;;;;;8.95;4.75;;;;;;;10.72;100.00;100395.81;5590066;31;34943;-70
2023/10/23 01:35:24;;;;;;;9.85;5.03;;;;;;;10.65;100.00;100404.62;5590039;31;34041;-71
2023/10/23 01:38:27;;;;;;;7.80;4.55;;;;;;;10.60;100.00;100398.97;5590058;31;34075;-71
2023/10/23 01:41:30;;;;;;;7.28;4.75;;;;;;;10.52;100.00;100406.91;5590072;31;33923;-70
2023/10/23 01:44:33;;;;;;;8.40;4.82;;;;;;;10.43;100.00;100398.97;5589808;31;34000;-70
2023/10/23 01:47:36;;;;;;;8.18;5.00;;;;;;;10.38;100.00;100409.25;5590002;31;34669;-71
2023/10/23 01:50:38;;;;;;;10.38;5.40;;;;;;;10.31;100.00;100404.78;5590444;31;33937;-71
2023/10/23 01:53:43;;;;;;;7.87;5.22;;;;;;;10.23;100.00;100397.66;5589888;31;34725;-71
2023/10/23 01:56:46;;;;;;;9.82;5.75;;;;;;;10.19;100.00;100400.78;5590121;31;34086;-71
2023/10/23 01:59:49;;;;;;;9.43;5.40;;;;;;;10.18;100.00;100407.91;5589850;31;34085;-71
2023/10/23 02:02:52;;;;;;;10.00;5.90;;;;;;;10.11;100.00;100403.41;5589765;31;34395;-71
2023/10/23 02:05:56;;;;;;;11.07;5.78;;;;;;;10.06;100.00;100393.31;5589941;31;34154;-71
2023/10/23 02:08:59;;;;;;;8.32;6.10;;;;;;;9.99;100.00;100393.13;5589720;31;34655;-71
2023/10/23 02:12:04;;;;;;;9.57;6.10;;;;;;;9.94;100.00;100394.59;5589752;31;34657;-71
2023/10/23 02:15:10;;;;;;;11.27;7.35;;;;;;;9.90;100.00;100399.41;5589741;31;34158;-71
2023/10/23 02:18:13;;;;;;;16.15;7.40;;;;;;;9.94;100.00;100399.91;5589671;31;34168;-71
2023/10/23 02:21:16;;;;;;;10.48;7.55;;;;;;;9.91;100.00;100397.59;5589703;31;34771;-71
2023/10/23 02:24:22;;;;;;;13.32;7.87;;;;;;;9.86;100.00;100395.44;5589250;31;34736;-71
2023/10/23 02:27:25;;;;;;;13.07;7.85;;;;;;;9.83;100.00;100395.72;5589616;31;34110;-71
2023/10/23 02:30:28;;;;;;;13.48;7.72;;;;;;;9.80;100.00;100396.06;5588920;31;35008;-71
2023/10/23 02:33:31;;;;;;;12.40;7.50;;;;;;;9.80;100.00;100401.38;5588952;31;34532;-71
2023/10/23 02:36:34;;;;;;;11.73;7.45;;;;;;;9.78;100.00;100395.38;5589547;31;34001;-71
2023/10/23 02:39:38;;;;;;;13.27;7.55;;;;;;;9.77;100.00;100404.34;5589609;31;34673;-71
2023/10/23 02:42:41;;;;;;;13.02;7.53;;;;;;;9.84;100.00;100404.50;5589566;31;34130;-71
2023/10/23 02:45:44;;;;;;;12.57;7.75;;;;;;;10.03;100.00;100413.00;5589395;31;34013;-72
2023/10/23 02:48:47;;;;;;;11.73;8.00;;;;;;;10.04;100.00;100411.19;5589586;31;34058;-71
2023/10/23 02:51:50;;;;;;;10.52;7.43;;;;;;;10.00;100.00;100409.84;5589489;31;34116;-71
2023/10/23 02:54:53;;;;;;;13.75;7.55;;;;;;;9.97;100.00;100410.19;5589697;31;34124;-71
2023/10/23 02:57:57;;;;;;;11.12;7.32;;;;;;;9.91;100.00;100413.50;5589408;31;34770;-71
2023/10/23 03:01:00;;;;;;;10.75;7.40;;;;;;;9.85;100.00;100404.34;5589417;31;34091;-71
2023/10/23 03:04:03;;;;;;;13.00;7.28;;;;;;;9.83;100.00;100411.62;5589170;31;34312;-71
2023/10/23 03:07:06;;;;;;;13.65;7.37;;;;;;;9.80;100.00;100413.78;5589346;31;34856;-71
2023/10/23 03:10:09;;;;;;;10.98;7.12;;;;;;;9.80;100.00;100422.56;5589142;31;35188;-71
2023/10/23 03:13:12;;;;;;;11.30;7.45;;;;;;;9.76;100.00;100412.44;5589180;31;34860;-71
2023/10/23 03:16:16;;;;;;;11.07;7.45;;;;;;;9.75;100.00;100424.03;5589234;31;34600;-71
2023/10/23 03:19:22;;;;;;;11.68;7.15;;;;;;;9.74;100.00;100428.50;5588436;31;34737;-71
2023/10/23 03:22:25;;;;;;;9.50;7.47;;;;;;;9.76;100.00;100423.87;5589569;31;34121;-71
2023/10/23 03:25:28;;;;;;;11.15;7.45;;;;;;;9.85;100.00;100425.56;5589163;31;34090;-71
2023/10/23 03:28:31;;;;;;;12.82;8.32;;;;;;;9.85;100.00;100424.72;5589163;31;35190;-71
2023/10/23 03:31:34;;;;;;;12.75;8.25;;;;;;;9.87;100.00;100428.88;5589040;31;34230;-71
2023/10/23 03:34:38;;;;;;;12.23;8.52;;;;;;;9.93;100.00;100428.22;5588249;31;34257;-71
2023/10/23 03:37:40;;;;;;;18.15;8.13;;;;;;;9.91;100.00;100427.56;5589421;31;34093;-71
2023/10/23 03:40:58;;;;;;;11.50;8.13;;;;;;;9.90;100.00;100433.03;5589037;31;33978;-71
2023/10/23 03:44:02;;;;;;;11.00;8.30;;;;;;;9.88;100.00;100433.16;5588161;31;34983;-72
2023/10/23 03:47:05;;;;;;;12.18;8.60;;;;;;;9.84;100.00;100434.50;5587701;31;34044;-71
2023/10/23 03:50:08;;;;;;;11.25;8.20;;;;;;;9.89;100.00;100434.00;5589141;31;34633;-72
2023/10/23 03:53:12;;;;;;;10.55;8.32;;;;;;;9.84;100.00;100438.97;5588896;31;33980;-71
2023/10/23 03:56:15;;;;;;;13.93;9.07;;;;;;;9.77;100.00;100437.97;5588682;31;34111;-72
2023/10/23 03:59:18;;;;;;;20.02;8.60;;;;;;;9.74;100.00;100438.25;5589094;31;33949;-72
2023/10/23 04:02:20;;;;;;;12.77;8.88;;;;;;;9.79;100.00;100430.66;5588630;31;34070;-72
2023/10/23 04:05:23;;;;;;;10.63;9.25;;;;;;;9.82;100.00;100430.34;5588718;31;35131;-71
2023/10/23 04:08:29;;;;;;;12.60;9.00;;;;;;;9.83;100.00;100434.63;5588557;31;34039;-72
2023/10/23 04:11:32;;;;;;;13.32;8.60;;;;;;;9.91;100.00;100437.34;5588489;31;34120;-71
2023/10/23 04:14:34;;;;;;;16.02;8.73;;;;;;;9.84;100.00;100442.44;5588427;31;34786;-71
2023/10/23 04:17:37;;;;;;;11.75;8.13;;;;;;;9.79;100.00;100443.91;5588555;31;34821;-71
2023/10/23 04:20:40;;;;;;;11.93;7.62;;;;;;;9.70;100.00;100448.34;5588391;31;34212;-71
2023/10/23 04:23:43;;;;;;;13.40;8.43;;;;;;;9.74;100.00;100454.16;5588394;31;34800;-71
2023/10/23 04:26:46;;;;;;;14.77;8.32;;;;;;;9.79;100.00;100459.81;5588247;31;34049;-72
2023/10/23 04:29:49;;;;;;;10.25;7.43;;;;;;;9.75;100.00;100474.37;5588142;31;34772;-72
2023/10/23 04:32:52;;;;;;;13.07;7.40;;;;;;;9.70;100.00;100477.50;5588131;31;34000;-72
2023/10/23 04:35:56;;;;;;;13.70;7.87;;;;;;;9.68;100.00;100476.00;5587273;31;34526;-71
2023/10/23 04:38:59;;;;;;;10.85;6.43;;;;;;;9.69;100.00;100464.41;5587986;31;34288;-72
2023/10/23 04:42:01;;;;;;;11.95;7.18;;;;;;;9.73;100.00;100469.22;5587874;31;34720;-72
2023/10/23 04:45:05;;;;;;;10.25;6.93;;;;;;;9.70;100.00;100471.37;5581522;31;34033;-71
2023/10/23 04:48:09;;;;;;;11.82;6.28;;;;;;;9.69;100.00;100480.28;5581347;31;34127;-71
2023/10/23 04:51:11;;;;;;;8.13;5.10;;;;;;;9.71;100.00;100473.03;5587727;31;34684;-72
2023/10/23 04:54:14;;;;;;;8.02;4.35;;;;;;;9.78;100.00;100479.38;5587831;31;34011;-71
2023/10/23 04:57:17;;;;;;;13.38;4.43;;;;;;;9.73;100.00;100485.13;5588026;31;34126;-72
2023/10/23 05:00:20;;;;;;;9.85;4.60;;;;;;;9.71;100.00;100483.63;5590435;31;34815;-72
2023/10/23 05:03:23;;;;;;;8.43;4.35;;;;;;;9.69;100.00;100481.13;5590312;31;34036;-71
2023/10/23 05:06:26;;;;;;;6.82;4.05;;;;;;;9.72;100.00;100485.28;5590283;31;35030;-72
2023/10/23 05:09:30;;;;;;;7.15;4.12;;;;;;;9.73;100.00;100479.81;5590377;31;34065;-72
2023/10/23 05:12:35;;;;;;;6.97;4.12;;;;;;;9.76;100.00;100483.97;5590301;31;34156;-72
2023/10/23 05:15:38;;;;;;;7.82;4.30;;;;;;;9.76;100.00;100486.62;5590238;31;34020;-72
2023/10/23 05:18:41;;;;;;;7.97;4.22;;;;;;;9.76;100.00;100484.81;5589471;31;34115;-72
2023/10/23 05:21:44;;;;;;;6.82;4.28;;;;;;;9.80;100.00;100485.31;5590160;31;34144;-72
2023/10/23 05:24:48;;;;;;;7.85;4.35;;;;;;;9.85;100.00;100502.41;5590264;31;34231;-72
2023/10/23 05:27:50;;;;;;;6.78;3.97;;;;;;;9.98;100.00;100488.69;5590160;31;34066;-72
2023/10/23 05:30:53;;;;;;;8.73;4.18;;;;;;;10.03;100.00;100491.69;5590337;31;34100;-71
2023/10/23 05:33:56;;;;;;;8.75;4.53;;;;;;;10.06;100.00;100487.91;5590130;31;34141;-72
2023/10/23 05:37:02;;;;;;;9.77;4.57;;;;;;;10.03;100.00;100489.03;5590269;31;34342;-72
2023/10/23 05:40:06;;;;;;;11.02;4.57;;;;;;;10.10;100.00;100487.41;5590075;31;34621;-71
2023/10/23 05:43:10;;;;;;;14.60;6.95;;;;;;;10.17;100.00;100506.16;5589280;31;34847;-72
2023/10/23 05:46:13;;;;;;;9.68;6.07;;;;;;;10.11;100.00;100498.84;5589809;31;34687;-72
2023/10/23 05:49:16;;;;;;;14.35;7.95;;;;;;;10.15;100.00;100508.97;5589249;31;34920;-71
2023/10/23 05:52:19;;;;;;;12.85;7.22;;;;;;;10.16;100.00;100509.81;5589826;31;34121;-72
2023/10/23 05:55:23;;;;;;;14.95;8.40;;;;;;;10.16;100.00;100509.81;5589199;31;33983;-72
2023/10/23 05:58:26;;;;;;;12.88;9.27;;;;;;;10.18;100.00;100515.78;5589928;31;34021;-72
2023/10/23 06:01:29;;;;;;;15.95;10.52;;;;;;;10.18;100.00;100526.38;5589947;31;34102;-72
2023/10/23 06:04:32;;;;;;;13.68;10.05;;;;;;;10.16;100.00;100515.13;5589031;31;34793;-70
2023/10/23 06:07:35;;;;;;;16.75;11.10;;;;;;;10.16;100.00;100513.31;5589653;31;33947;-71
2023/10/23 06:10:45;;;;;;;13.70;10.38;;;;;;;10.20;100.00;100522.59;5588471;31;34201;-71
2023/10/23 06:13:48;;;;;;;18.35;9.95;;;;;;;10.23;100.00;100527.56;5589784;31;33715;-71
2023/10/23 06:16:51;;;;;;;16.83;10.40;;;;;;;10.35;100.00;100536.06;5589868;31;34143;-71
2023/10/23 06:19:54;;;;;;;13.20;9.80;;;;;;;10.34;100.00;100539.69;5589572;31;34021;-71
2023/10/23 06:23:01;;;;;;;15.20;9.18;;;;;;;10.41;100.00;100541.50;5589475;31;34805;-71
2023/10/23 06:26:04;;;;;;;12.80;9.15;;;;;;;10.44;100.00;100545.69;5588825;31;34258;-71
2023/10/23 06:29:07;;;;;;;11.45;8.85;;;;;;;10.59;100.00;100551.19;5589459;31;33991;-71
2023/10/23 06:32:12;;;;;;;12.57;8.80;;;;;;;10.54;100.00;100550.84;5589511;31;34163;-71
2023/10/23 06:35:15;;;;;;;12.23;8.85;;;;;;;10.65;100.00;100556.66;5589507;31;34705;-71
2023/10/23 06:38:18;;;;;;;13.40;8.05;;;;;;;10.68;100.00;100558.16;5589197;31;35051;-72
2023/10/23 06:41:21;;;;;;;12.52;8.05;;;;;;;10.69;100.00;100552.69;5588458;31;34861;-72
2023/10/23 06:44:24;;;;;;;13.13;8.20;;;;;;;10.86;100.00;100550.88;5589324;31;34780;-72
2023/10/23 06:47:27;;;;;;;11.23;7.45;;;;;;;10.99;100.00;100555.69;5589530;31;34142;-72
2023/10/23 06:50:30;;;;;;;14.87;8.13;;;;;;;11.08;100.00;100549.37;5589363;31;34016;-72
2023/10/23 06:53:34;;;;;;;10.98;7.65;;;;;;;11.12;100.00;100559.50;5588725;31;34660;-72
2023/10/23 06:56:37;;;;;;;10.25;7.03;;;;;;;11.16;100.00;100541.41;5589338;31;33981;-72
2023/10/23 06:59:40;;;;;;;6.60;5.20;;;;;;;11.28;100.00;100535.56;5589401;31;34714;-72
2023/10/23 07:02:43;;;;;;;9.85;5.32;;;;;;;11.40;100.00;100541.38;5589315;31;34068;-71
2023/10/23 07:05:47;;;;;;;7.53;5.12;;;;;;;11.59;100.00;100537.50;5589317;31;34119;-72
2023/10/23 07:08:49;;;;;;;6.95;4.75;;;;;;;11.72;100.00;100540.44;5588929;31;34336;-72
2023/10/23 07:11:52;;;;;;;9.60;4.75;;;;;;;11.75;100.00;100548.13;5589139;31;34063;-71
2023/10/23 07:14:56;;;;;;;8.68;4.68;;;;;;;11.89;100.00;100544.75;5589530;31;35102;-72
2023/10/23 07:17:59;;;;;;;7.43;4.47;;;;;;;12.01;100.00;100550.50;5589272;31;34008;-71
2023/10/23 07:21:03;;;;;;;9.38;4.68;;;;;;;12.33;100.00;100550.38;5588747;31;34807;-71
2023/10/23 07:24:06;;;;;;;7.50;4.82;;;;;;;12.42;100.00;100551.97;5589379;31;34023;-72
2023/10/23 07:27:14;;;;;;;6.45;4.70;;;;;;;12.59;100.00;100536.72;5589300;31;34694;-72
2023/10/23 07:30:18;;;;;;;7.85;4.70;;;;;;;12.83;100.00;100541.06;5588417;31;34049;-72
2023/10/23 07:33:22;;;;;;;7.35;4.30;;;;;;;13.07;100.00;100539.00;5589468;31;34098;-72
2023/10/23 07:36:25;;;;;;;7.57;4.40;;;;;;;13.05;100.00;100548.19;5588819;31;35128;-72
2023/10/23 07:39:27;;;;;;;8.02;3.83;;;;;;;13.01;100.00;100555.72;5588916;31;34254;-71
2023/10/23 07:42:31;;;;;;;13.77;4.07;;;;;;;13.47;100.00;100558.31;5589409;31;34722;-71
2023/10/23 07:45:38;;;;;;;6.57;3.35;;;;;;;14.70;100.00;100562.78;5584245;31;135461;-71
2023/10/23 07:48:42;;;;;;;5.97;3.47;;;;;;;16.43;100.00;100559.25;5588758;31;33937;-71
2023/10/23 07:51:45;;;;;;;6.43;3.30;;;;;;;17.70;100.00;100562.69;5588661;31;33987;-71
2023/10/23 07:54:48;;;;;;;7.12;3.30;;;;;;;17.71;100.00;100564.34;5587798;31;34001;-71
2023/10/23 07:57:50;;;;;;;7.50;3.08;;;;;;;19.40;100.00;100570.88;5588770;31;34093;-72
2023/10/23 08:01:04;;;;;;;6.22;3.03;;;;;;;20.26;94.04;100578.88;5588564;31;34069;-71
2023/10/23 08:04:08;;;;;;;6.72;3.37;;;;;;;20.55;89.87;100582.69;5588590;31;33967;-71
2023/10/23 08:07:11;;;;;;;5.47;2.65;;;;;;;21.72;80.24;100581.06;5586874;31;34119;-71
2023/10/23 08:10:14;;;;;;;6.53;3.10;;;;;;;22.61;76.49;100574.28;5588033;31;34474;-71
2023/10/23 08:13:17;;;;;;;7.10;3.15;;;;;;;23.75;66.39;100574.88;5588213;31;34069;-71
2023/10/23 08:16:20;;;;;;;6.40;3.03;;;;;;;23.24;66.69;100581.38;5588299;31;34534;-71
2023/10/23 08:19:23;;;;;;;7.37;3.20;;;;;;;21.25;71.07;100567.53;5588256;31;33977;-71
2023/10/23 08:22:26;;;;;;;7.70;3.25;;;;;;;19.94;84.62;100564.75;5587829;31;34128;-72
2023/10/23 08:25:29;;;;;;;8.45;3.40;;;;;;;18.30;100.00;100549.84;5588256;31;34500;-71
2023/10/23 08:28:31;;;;;;;6.85;3.50;;;;;;;17.29;100.00;100554.00;5587659;31;34220;-71
2023/10/23 08:31:54;;;;;;;5.55;3.75;;;;;;;16.28;100.00;100558.56;5588562;31;34782;-71
2023/10/23 08:34:57;;;;;;;10.23;3.72;;;;;;;15.72;100.00;100552.53;5590316;31;34168;-70
2023/10/23 08:38:00;;;;;;;5.87;4.37;;;;;;;15.07;100.00;100552.84;5590395;31;34753;-71
2023/10/23 08:41:03;;;;;;;8.52;4.50;;;;;;;14.88;100.00;100550.81;5589950;31;35797;-70
2023/10/23 08:44:06;;;;;;;8.05;4.78;;;;;;;14.85;100.00;100552.06;5589423;31;34059;-70
2023/10/23 08:47:09;;;;;;;8.18;5.50;;;;;;;14.74;100.00;100540.03;5590160;31;34000;-70
2023/10/23 08:50:12;;;;;;;10.10;5.45;;;;;;;14.59;100.00;100535.75;5589221;31;34342;-70
2023/10/23 08:53:17;;;;;;;12.60;5.47;;;;;;;14.74;100.00;100528.50;5590319;31;34698;-70
2023/10/23 08:56:22;;;;;;;6.53;5.40;;;;;;;14.87;100.00;100527.78;5590415;31;33299;-70
2023/10/23 08:59:25;;;;;;;8.95;5.70;;;;;;;15.17;100.00;100527.44;5589922;31;34963;-70
2023/10/23 09:02:31;;;;;;;10.27;5.32;;;;;;;15.17;100.00;100532.78;5589665;31;34081;-71
2023/10/23 09:05:34;;;;;;;28.38;6.20;;;;;;;15.44;100.00;100541.81;5589187;31;34180;-70
2023/10/23 09:08:37;;;;;;;8.45;4.30;;;;;;;15.56;100.00;100547.50;5589773;31;34262;-70
2023/10/23 09:11:46;;;;;;;6.90;4.30;;;;;;;15.71;100.00;100544.72;5589709;31;34304;-70
2023/10/23 09:14:50;;;;;;;7.40;4.35;;;;;;;15.74;100.00;100550.47;5589740;31;35461;-70
2023/10/23 09:17:53;;;;;;;12.40;4.75;;;;;;;15.80;100.00;100549.69;5588953;31;35139;-70
2023/10/23 09:20:57;;;;;;;8.27;5.12;;;;;;;15.67;100.00;100554.16;5589614;31;34131;-70
2023/10/23 09:24:03;;;;;;;8.20;5.20;;;;;;;15.55;100.00;100543.16;5588925;31;34038;-70
2023/10/23 09:27:06;;;;;;;6.25;4.60;;;;;;;15.48;100.00;100553.81;5589712;31;34778;-70
2023/10/23 09:30:10;;;;;;;8.32;5.05;;;;;;;15.61;100.00;100553.91;5589428;31;34130;-70
2023/10/23 09:33:14;;;;;;;7.05;5.12;;;;;;;15.84;100.00;100550.13;5589522;31;34777;-70
2023/10/23 09:36:18;;;;;;;7.95;4.97;;;;;;;15.91;100.00;100543.78;5588505;31;34236;-70
2023/10/23 09:39:22;;;;;;;11.15;5.03;;;;;;;16.00;100.00;100544.44;5589319;31;34094;-69
2023/10/23 09:42:32;;;;;;;8.43;4.53;;;;;;;16.03;100.00;100534.16;5589490;31;34313;-69
2023/10/23 09:45:36;;;;;;;7.22;4.82;;;;;;;16.00;100.00;100521.19;5588519;31;34791;-69
2023/10/23 09:48:44;;;;;;;6.87;3.97;;;;;;;16.07;100.00;100524.72;5588827;31;34020;-69
2023/10/23 09:51:49;;;;;;;6.50;3.53;;;;;;;16.16;100.00;100528.06;5589513;31;34711;-70
2023/10/23 09:55:04;;;;;;;6.80;3.35;;;;;;;16.29;100.00;100527.28;5589447;31;35522;-71
2023/10/23 09:58:14;;;;;;;5.22;2.80;;;;;;;16.57;100.00;100529.81;5589386;31;34505;-70
2023/10/23 10:01:22;;;;;;;5.10;2.90;;;;;;;16.93;100.00;100519.59;5589356;31;36377;-70
2023/10/23 10:04:54;;;;;;;6.45;3.30;;;;;;;17.19;100.00;100526.78;5589194;31;34266;-71
2023/10/23 10:08:24;;;;;;;5.20;2.90;;;;;;;17.22;100.00;100521.03;5575939;31;34015;-69
2023/10/23 10:11:27;;;;;;;6.20;2.72;;;;;;;17.47;100.00;100522.03;5587324;31;34169;-70
2023/10/23 10:14:31;;;;;;;3.97;2.65;;;;;;;17.62;100.00;100524.53;5588364;31;34285;-70
2023/10/23 10:17:35;;;;;;;5.05;2.92;;;;;;;17.69;100.00;100517.25;5588345;31;35016;-71
2023/10/23 10:20:41;;;;;;;4.87;2.90;;;;;;;17.63;99.42;100520.78;5589281;31;34750;-70
2023/10/23 10:23:44;;;;;;;7.07;2.72;;;;;;;17.70;100.00;100521.59;5589368;31;34082;-70
2023/10/23 10:26:48;;;;;;;6.28;2.80;;;;;;;17.65;100.00;100516.88;5589313;31;34621;-70
2023/10/23 10:29:51;;;;;;;5.70;2.70;;;;;;;17.74;100.00;100506.72;5589228;31;34173;-70
2023/10/23 10:33:00;;;;;;;6.82;2.35;;;;;;;17.88;100.00;100504.81;5589016;31;34410;-70
2023/10/23 10:36:27;;;;;;;3.90;1.90;;;;;;;17.73;100.00;100505.06;5589477;31;34099;-70
2023/10/23 10:39:50;;;;;;;9.93;2.22;;;;;;;17.78;100.00;100492.66;5589359;31;34094;-70
2023/10/23 10:42:55;;;;;;;4.80;1.80;;;;;;;18.00;96.48;100495.06;5589279;31;34709;-70
2023/10/23 10:45:58;;;;;;;3.33;1.80;;;;;;;18.16;97.32;100499.94;5588996;31;35069;-70
2023/10/23 10:49:03;;;;;;;4.65;1.92;;;;;;;18.04;96.84;100494.44;5589288;31;34712;-70
2023/10/23 10:52:30;;;;;;;5.87;1.85;;;;;;;18.13;100.00;100495.84;5589427;31;34188;-70
2023/10/23 10:55:35;;;;;;;4.32;1.70;;;;;;;18.30;95.83;100493.47;5588773;31;34249;-70
2023/10/23 10:58:42;;;;;;;3.05;1.55;;;;;;;18.65;90.99;100486.66;5589240;31;34022;-71
2023/10/23 11:01:44;;;;;;;4.90;1.58;;;;;;;19.63;82.62;100497.59;5589092;31;34752;-70
2023/10/23 11:04:48;;;;;;;2.85;1.27;;;;;;;22.52;71.20;100500.84;5588668;31;33971;-70
2023/10/23 11:07:51;;;;;;;3.28;1.60;;;;;;;;;;5589139;31;34234;-72
2023/10/23 11:11:02;;;;;;;4.82;1.48;;;;;;;25.86;53.39;100509.34;5589220;31;34327;-71
2023/10/23 11:14:05;;;;;;;2.75;1.20;;;;;;;26.59;52.91;100500.09;5589450;31;33955;-72
2023/10/23 11:17:07;;;;;;;2.87;1.37;;;;;;;28.43;45.20;100507.59;5588003;31;35275;-72
2023/10/23 11:20:13;;;;;;;3.20;1.00;;;;;;;28.65;43.37;100504.47;5575353;31;35151;-71
2023/10/23 11:23:21;;;;;;;4.20;1.10;;;;;;;28.65;43.37;100504.47;5587610;31;34587;-71
2023/10/23 11:26:26;;;;;;;3.00;1.20;;;;;;;28.65;43.37;100504.47;5588896;31;34139;-71
2023/10/23 11:29:35;;;;;;;4.10;1.20;;;;;;;28.65;43.37;100504.47;5588828;31;34176;-71
2023/10/23 11:32:40;;;;;;;2.65;1.00;;;;;;;28.65;43.37;100504.47;5588668;31;34982;-71
2023/10/23 11:35:43;;;;;;;4.15;1.10;;;;;;;28.65;43.37;100504.47;5588831;31;34012;-71
2023/10/23 11:38:46;;;;;;;2.47;1.20;;;;;;;28.65;43.37;100504.47;5588739;31;34215;-71
2023/10/23 11:41:54;;;;;;;2.65;1.17;;;;;;;28.65;43.37;100504.47;5587841;31;34982;-72
2023/10/23 11:44:57;;;;;;;2.85;1.10;;;;;;;28.65;43.37;100504.47;5588115;31;34232;-72
2023/10/23 11:48:00;;;;;;;4.03;1.40;;;;;;;27.12;44.01;100459.81;5588754;31;34400;-72
2023/10/23 11:51:04;;;;;;;5.87;1.40;;;;;;;27.12;44.01;100459.81;5588288;31;34920;-74
2023/10/23 11:54:07;;;;;;;3.67;1.35;;;;;;;27.12;44.01;100459.81;5588672;31;33979;-72
2023/10/23 11:57:11;;;;;;;5.72;1.15;;;;;;;27.12;44.01;100459.81;5588391;31;33989;-72
2023/10/23 12:00:15;;;;;;;3.90;1.20;;;;;;;27.12;44.01;100459.81;5587760;31;34279;-75
2023/10/23 12:03:19;;;;;;;2.85;1.25;;;;;;;24.95;52.13;100417.31;5588323;31;33669;-72
2023/10/23 12:06:22;;;;;;;5.87;1.50;;;;;;;24.39;52.42;100407.06;5587283;31;34133;-71
2023/10/23 12:09:25;;;;;;;3.83;1.20;;;;;;;22.51;59.67;100399.16;5588208;31;34107;-71
2023/10/23 12:12:28;;;;;;;3.12;1.15;;;;;;;22.42;62.08;100397.94;5587870;31;34089;-71
2023/10/23 12:15:31;;;;;;;2.75;1.17;;;;;;;22.22;65.48;100377.88;5587987;31;34243;-70
2023/10/23 12:18:34;;;;;;;3.60;1.33;;;;;;;21.36;71.22;100378.88;5587984;31;34218;-71
2023/10/23 12:21:37;;;;;;;6.07;1.27;;;;;;;20.54;74.11;100372.66;5588020;31;33390;-70
2023/10/23 12:24:39;;;;;;;4.37;1.20;;;;;;;20.69;78.91;100381.12;5587825;31;33371;-70
2023/10/23 12:27:43;;;;;;;3.75;1.15;;;;;;;20.77;81.60;100386.16;5587828;31;35150;-70
2023/10/23 12:30:45;;;;;;;4.03;1.30;;;;;;;20.61;79.77;100386.88;5587599;31;34691;-71
2023/10/23 12:33:49;;;;;;;2.97;1.30;;;;;;;20.67;81.40;100381.34;5587164;31;33888;-71
2023/10/23 12:36:53;;;;;;;5.05;1.55;;;;;;;20.51;81.83;100381.22;5587579;31;33814;-71
2023/10/23 12:40:00;;;;;;;6.97;1.40;;;;;;;19.84;82.98;100378.69;5586988;31;33959;-71
2023/10/23 12:43:03;;;;;;;4.87;1.20;;;;;;;19.95;87.44;100380.59;5587959;31;34078;-71
2023/10/23 12:46:07;;;;;;;2.97;1.23;;;;;;;20.06;90.56;100378.16;5586581;31;34038;-70
2023/10/23 12:49:10;;;;;;;2.72;0.95;;;;;;;20.16;85.21;100381.12;5587415;31;34338;-71
2023/10/23 12:52:14;;;;;;;3.20;1.25;;;;;;;20.32;83.84;100383.19;5587855;31;34134;-71
2023/10/23 12:55:17;;;;;;;6.37;1.12;;;;;;;20.20;86.47;100382.31;5587589;31;34136;-70
2023/10/23 12:58:20;;;;;;;4.72;1.20;;;;;;;20.22;85.28;100385.59;5586007;31;34054;-71
2023/10/23 13:01:23;;;;;;;3.60;1.12;;;;;;;20.13;84.67;100376.22;5586290;31;34188;-71
2023/10/23 13:04:26;;;;;;;1.70;0.80;;;;;;;20.01;83.48;100378.84;5585544;31;34066;-72
2023/10/23 13:07:29;;;;;;;5.65;1.30;;;;;;;19.87;85.96;100375.53;5585827;31;35019;-70
2023/10/23 13:10:32;;;;;;;2.83;1.08;;;;;;;20.00;88.94;100376.37;5587413;31;34191;-70
2023/10/23 13:13:35;;;;;;;4.43;1.33;;;;;;;20.35;83.63;100377.34;5586967;31;34082;-70
2023/10/23 13:16:38;;;;;;;3.22;0.90;;;;;;;20.04;88.87;100358.75;5586038;31;34534;-72
2023/10/23 13:19:41;;;;;;;2.65;1.15;;;;;;;19.79;89.03;100348.13;5588386;31;35174;-69
2023/10/23 13:22:46;;;;;;;4.43;1.12;;;;;;;19.51;100.00;100351.38;5590239;31;33502;-70
2023/10/23 13:25:52;;;;;;;4.55;1.20;;;;;;;19.44;92.21;100354.16;5589817;31;33991;-70
2023/10/23 13:29:12;;;;;;;3.72;1.20;;;;;;;19.30;92.85;100344.59;5589557;31;34114;-70
2023/10/23 13:32:15;;;;;;;4.62;1.20;;;;;;;19.02;100.00;100344.28;5589106;31;34938;-70
2023/10/23 13:35:18;;;;;;;3.28;1.35;;;;;;;18.91;100.00;100347.72;5589058;31;34016;-70
2023/10/23 13:38:21;;;;;;;6.47;1.50;;;;;;;18.81;100.00;100344.72;5589361;31;33969;-70
2023/10/23 13:41:24;;;;;;;5.70;1.30;;;;;;;18.73;100.00;100347.69;5589531;31;34649;-69
2023/10/23 13:44:27;;;;;;;5.65;1.23;;;;;;;18.76;100.00;100352.63;5587241;31;34049;-71
2023/10/23 13:47:30;;;;;;;4.57;1.40;;;;;;;18.73;100.00;100348.53;5585019;31;34670;-71
2023/10/23 13:50:34;;;;;;;8.32;1.70;;;;;;;18.65;100.00;100346.91;5588158;31;34564;-70
2023/10/23 13:53:37;;;;;;;4.90;1.60;;;;;;;18.54;100.00;100353.00;5588166;31;35111;-70
2023/10/23 13:56:40;;;;;;;5.55;1.65;;;;;;;18.53;100.00;100356.75;5589271;31;34676;-70
2023/10/23 13:59:43;;;;;;;5.55;1.80;;;;;;;18.55;100.00;100353.84;5589286;31;34652;-69
2023/10/23 14:02:45;;;;;;;5.15;1.50;;;;;;;18.47;100.00;100349.53;5589263;31;34840;-69
2023/10/23 14:05:50;;;;;;;5.68;1.85;;;;;;;18.27;100.00;100340.81;5589367;31;34115;-70
2023/10/23 14:08:54;;;;;;;5.85;1.70;;;;;;;18.26;100.00;100341.84;5589289;31;34094;-69